sensor_id;sensor_type;location;lat;lon;timestamp;P1;durP1;ratioP1;P2;durP2;ratioP2
12024;SDS011;6073;53.230;10.444;2023-08-08T00:02:14;2.35;;;1.70;;
12024;SDS011;6073;53.230;10.444;2023-08-08T00:04:40;6.10;;;1.88;;
12024;SDS011;6073;53.230;10.444;2023-08-08T00:07:05;4.03;;;2.08;;
12024;SDS011;6073;53.230;10.444;2023-08-08T00:09:31;3.20;;;1.80;;
12024;SDS011;6073;53.230;10.444;2023-08-08T00:11:57;4.50;;;1.77;;
12024;SDS011;6073;53.230;10.444;2023-08-08T00:14:22;3.88;;;1.98;;
12024;SDS011;6073;53.230;10.444;2023-08-08T00:16:49;2.33;;;1.58;;
12024;SDS011;6073;53.230;10.444;2023-08-08T00:19:14;3.35;;;2.03;;
12024;SDS011;6073;53.230;10.444;2023-08-08T00:21:40;4.05;;;1.90;;
12024;SDS011;6073;53.230;10.444;2023-08-08T00:24:06;3.97;;;2.10;;
12024;SDS011;6073;53.230;10.444;2023-08-08T00:26:31;3.95;;;1.77;;
12024;SDS011;6073;53.230;10.444;2023-08-08T00:28:57;5.80;;;2.20;;
12024;SDS011;6073;53.230;10.444;2023-08-08T00:31:22;4.43;;;1.90;;
12024;SDS011;6073;53.230;10.444;2023-08-08T00:33:48;2.97;;;2.17;;
12024;SDS011;6073;53.230;10.444;2023-08-08T00:36:13;3.08;;;1.85;;
12024;SDS011;6073;53.230;10.444;2023-08-08T00:38:39;5.85;;;2.00;;
12024;SDS011;6073;53.230;10.444;2023-08-08T00:41:04;4.53;;;2.10;;
12024;SDS011;6073;53.230;10.444;2023-08-08T00:43:30;4.25;;;2.10;;
12024;SDS011;6073;53.230;10.444;2023-08-08T00:45:55;3.03;;;2.05;;
12024;SDS011;6073;53.230;10.444;2023-08-08T00:48:22;4.43;;;1.80;;
12024;SDS011;6073;53.230;10.444;2023-08-08T00:50:48;4.03;;;1.95;;
12024;SDS011;6073;53.230;10.444;2023-08-08T00:53:15;3.83;;;2.20;;
12024;SDS011;6073;53.230;10.444;2023-08-08T00:55:42;4.60;;;1.98;;
12024;SDS011;6073;53.230;10.444;2023-08-08T00:58:08;4.30;;;1.90;;
12024;SDS011;6073;53.230;10.444;2023-08-08T01:00:34;3.83;;;2.22;;
12024;SDS011;6073;53.230;10.444;2023-08-08T01:03:00;4.32;;;2.20;;
12024;SDS011;6073;53.230;10.444;2023-08-08T01:05:25;3.63;;;2.08;;
12024;SDS011;6073;53.230;10.444;2023-08-08T01:07:58;4.18;;;1.95;;
12024;SDS011;6073;53.230;10.444;2023-08-08T01:10:39;3.38;;;2.28;;
12024;SDS011;6073;53.230;10.444;2023-08-08T01:13:10;4.63;;;2.75;;
12024;SDS011;6073;53.230;10.444;2023-08-08T01:15:42;2.63;;;1.73;;
12024;SDS011;6073;53.230;10.444;2023-08-08T01:18:11;5.32;;;2.50;;
12024;SDS011;6073;53.230;10.444;2023-08-08T01:20:39;2.67;;;1.75;;
12024;SDS011;6073;53.230;10.444;2023-08-08T01:23:26;4.88;;;1.90;;
12024;SDS011;6073;53.230;10.444;2023-08-08T01:25:56;6.30;;;2.40;;
12024;SDS011;6073;53.230;10.444;2023-08-08T01:28:23;5.10;;;2.53;;
12024;SDS011;6073;53.230;10.444;2023-08-08T01:30:49;3.10;;;1.95;;
12024;SDS011;6073;53.230;10.444;2023-08-08T01:33:15;3.75;;;1.75;;
12024;SDS011;6073;53.230;10.444;2023-08-08T01:35:43;2.75;;;2.00;;
12024;SDS011;6073;53.230;10.444;2023-08-08T01:41:13;3.75;;;2.13;;
12024;SDS011;6073;53.230;10.444;2023-08-08T01:43:40;3.10;;;1.70;;
12024;SDS011;6073;53.230;10.444;2023-08-08T01:46:07;4.40;;;2.10;;
12024;SDS011;6073;53.230;10.444;2023-08-08T01:48:33;6.53;;;2.10;;
12024;SDS011;6073;53.230;10.444;2023-08-08T01:50:59;4.43;;;2.00;;
12024;SDS011;6073;53.230;10.444;2023-08-08T01:53:24;2.00;;;1.50;;
12024;SDS011;6073;53.230;10.444;2023-08-08T01:55:50;4.32;;;2.20;;
12024;SDS011;6073;53.230;10.444;2023-08-08T01:58:17;3.30;;;1.83;;
12024;SDS011;6073;53.230;10.444;2023-08-08T02:00:43;5.95;;;2.20;;
12024;SDS011;6073;53.230;10.444;2023-08-08T02:03:10;3.05;;;2.08;;
12024;SDS011;6073;53.230;10.444;2023-08-08T02:05:35;6.00;;;1.95;;
12024;SDS011;6073;53.230;10.444;2023-08-08T02:08:01;4.22;;;2.05;;
12024;SDS011;6073;53.230;10.444;2023-08-08T02:10:27;2.45;;;1.80;;
12024;SDS011;6073;53.230;10.444;2023-08-08T02:12:52;2.97;;;1.52;;
12024;SDS011;6073;53.230;10.444;2023-08-08T02:15:18;3.60;;;1.85;;
12024;SDS011;6073;53.230;10.444;2023-08-08T02:17:45;2.42;;;1.80;;
12024;SDS011;6073;53.230;10.444;2023-08-08T02:20:11;5.05;;;2.03;;
12024;SDS011;6073;53.230;10.444;2023-08-08T02:22:37;3.75;;;1.90;;
12024;SDS011;6073;53.230;10.444;2023-08-08T02:25:02;3.78;;;1.88;;
12024;SDS011;6073;53.230;10.444;2023-08-08T02:27:28;2.75;;;1.70;;
12024;SDS011;6073;53.230;10.444;2023-08-08T02:29:54;2.42;;;1.45;;
12024;SDS011;6073;53.230;10.444;2023-08-08T02:32:19;3.50;;;1.80;;
12024;SDS011;6073;53.230;10.444;2023-08-08T02:34:45;2.13;;;1.90;;
12024;SDS011;6073;53.230;10.444;2023-08-08T02:37:10;2.50;;;1.83;;
12024;SDS011;6073;53.230;10.444;2023-08-08T02:39:36;3.95;;;1.77;;
12024;SDS011;6073;53.230;10.444;2023-08-08T02:42:01;7.40;;;2.45;;
12024;SDS011;6073;53.230;10.444;2023-08-08T02:44:27;5.45;;;1.88;;
12024;SDS011;6073;53.230;10.444;2023-08-08T02:46:53;4.18;;;1.65;;
12024;SDS011;6073;53.230;10.444;2023-08-08T02:49:18;2.58;;;1.65;;
12024;SDS011;6073;53.230;10.444;2023-08-08T02:51:44;6.78;;;2.30;;
12024;SDS011;6073;53.230;10.444;2023-08-08T02:54:09;3.55;;;1.75;;
12024;SDS011;6073;53.230;10.444;2023-08-08T02:56:35;3.67;;;2.15;;
12024;SDS011;6073;53.230;10.444;2023-08-08T02:59:00;6.10;;;2.65;;
12024;SDS011;6073;53.230;10.444;2023-08-08T03:01:26;3.10;;;2.10;;
12024;SDS011;6073;53.230;10.444;2023-08-08T03:03:51;3.58;;;2.00;;
12024;SDS011;6073;53.230;10.444;2023-08-08T03:06:17;5.05;;;2.22;;
12024;SDS011;6073;53.230;10.444;2023-08-08T03:08:43;4.38;;;1.95;;
12024;SDS011;6073;53.230;10.444;2023-08-08T03:11:08;5.22;;;2.20;;
12024;SDS011;6073;53.230;10.444;2023-08-08T03:13:34;3.85;;;2.22;;
12024;SDS011;6073;53.230;10.444;2023-08-08T03:15:59;2.55;;;2.10;;
12024;SDS011;6073;53.230;10.444;2023-08-08T03:18:25;5.22;;;2.20;;
12024;SDS011;6073;53.230;10.444;2023-08-08T03:20:53;5.15;;;1.83;;
12024;SDS011;6073;53.230;10.444;2023-08-08T03:23:18;3.33;;;2.40;;
12024;SDS011;6073;53.230;10.444;2023-08-08T03:25:44;2.67;;;2.15;;
12024;SDS011;6073;53.230;10.444;2023-08-08T03:28:09;5.47;;;2.38;;
12024;SDS011;6073;53.230;10.444;2023-08-08T03:30:38;4.25;;;2.50;;
12024;SDS011;6073;53.230;10.444;2023-08-08T03:33:04;3.20;;;2.38;;
12024;SDS011;6073;53.230;10.444;2023-08-08T03:35:30;2.72;;;1.98;;
12024;SDS011;6073;53.230;10.444;2023-08-08T03:37:55;2.88;;;2.25;;
12024;SDS011;6073;53.230;10.444;2023-08-08T03:40:21;4.35;;;2.28;;
12024;SDS011;6073;53.230;10.444;2023-08-08T03:42:46;4.47;;;2.47;;
12024;SDS011;6073;53.230;10.444;2023-08-08T03:45:12;3.63;;;2.28;;
12024;SDS011;6073;53.230;10.444;2023-08-08T03:47:37;5.38;;;2.47;;
12024;SDS011;6073;53.230;10.444;2023-08-08T03:50:03;2.80;;;1.70;;
12024;SDS011;6073;53.230;10.444;2023-08-08T03:52:30;3.13;;;2.20;;
12024;SDS011;6073;53.230;10.444;2023-08-08T03:54:56;4.20;;;2.00;;
12024;SDS011;6073;53.230;10.444;2023-08-08T03:57:21;3.97;;;2.15;;
12024;SDS011;6073;53.230;10.444;2023-08-08T03:59:47;4.78;;;2.38;;
12024;SDS011;6073;53.230;10.444;2023-08-08T04:02:12;2.45;;;2.15;;
12024;SDS011;6073;53.230;10.444;2023-08-08T04:04:38;3.58;;;2.15;;
12024;SDS011;6073;53.230;10.444;2023-08-08T04:07:04;3.42;;;2.13;;
12024;SDS011;6073;53.230;10.444;2023-08-08T04:09:29;4.05;;;2.40;;
12024;SDS011;6073;53.230;10.444;2023-08-08T04:11:55;4.72;;;2.30;;
12024;SDS011;6073;53.230;10.444;2023-08-08T04:14:20;3.92;;;2.30;;
12024;SDS011;6073;53.230;10.444;2023-08-08T04:16:46;4.00;;;2.13;;
12024;SDS011;6073;53.230;10.444;2023-08-08T04:19:11;4.88;;;2.30;;
12024;SDS011;6073;53.230;10.444;2023-08-08T04:21:37;3.08;;;2.25;;
12024;SDS011;6073;53.230;10.444;2023-08-08T04:24:02;2.85;;;2.00;;
12024;SDS011;6073;53.230;10.444;2023-08-08T04:26:28;2.85;;;1.85;;
12024;SDS011;6073;53.230;10.444;2023-08-08T04:28:53;4.47;;;2.00;;
12024;SDS011;6073;53.230;10.444;2023-08-08T04:31:20;2.65;;;2.30;;
12024;SDS011;6073;53.230;10.444;2023-08-08T04:33:48;4.43;;;2.20;;
12024;SDS011;6073;53.230;10.444;2023-08-08T04:36:14;5.70;;;2.20;;
12024;SDS011;6073;53.230;10.444;2023-08-08T04:38:39;2.45;;;2.13;;
12024;SDS011;6073;53.230;10.444;2023-08-08T04:41:05;4.03;;;1.90;;
12024;SDS011;6073;53.230;10.444;2023-08-08T04:43:30;4.53;;;1.95;;
12024;SDS011;6073;53.230;10.444;2023-08-08T04:45:56;4.72;;;2.20;;
12024;SDS011;6073;53.230;10.444;2023-08-08T04:48:21;3.58;;;2.20;;
12024;SDS011;6073;53.230;10.444;2023-08-08T04:50:47;4.70;;;2.30;;
12024;SDS011;6073;53.230;10.444;2023-08-08T04:53:12;4.28;;;2.30;;
12024;SDS011;6073;53.230;10.444;2023-08-08T04:55:38;3.28;;;2.08;;
12024;SDS011;6073;53.230;10.444;2023-08-08T04:58:04;4.28;;;2.15;;
12024;SDS011;6073;53.230;10.444;2023-08-08T05:00:29;3.67;;;2.38;;
12024;SDS011;6073;53.230;10.444;2023-08-08T05:02:55;3.55;;;2.47;;
12024;SDS011;6073;53.230;10.444;2023-08-08T05:05:20;3.60;;;2.38;;
12024;SDS011;6073;53.230;10.444;2023-08-08T05:07:46;4.45;;;2.65;;
12024;SDS011;6073;53.230;10.444;2023-08-08T05:10:12;4.07;;;3.05;;
12024;SDS011;6073;53.230;10.444;2023-08-08T05:12:37;2.40;;;2.20;;
12024;SDS011;6073;53.230;10.444;2023-08-08T05:15:03;5.03;;;2.47;;
12024;SDS011;6073;53.230;10.444;2023-08-08T05:17:29;3.42;;;2.13;;
12024;SDS011;6073;53.230;10.444;2023-08-08T05:19:57;4.75;;;2.25;;
12024;SDS011;6073;53.230;10.444;2023-08-08T05:22:22;2.95;;;2.42;;
12024;SDS011;6073;53.230;10.444;2023-08-08T05:24:48;7.07;;;2.08;;
12024;SDS011;6073;53.230;10.444;2023-08-08T05:27:13;5.55;;;1.77;;
12024;SDS011;6073;53.230;10.444;2023-08-08T05:29:39;3.20;;;1.92;;
12024;SDS011;6073;53.230;10.444;2023-08-08T05:32:06;2.63;;;1.80;;
12024;SDS011;6073;53.230;10.444;2023-08-08T05:34:32;2.20;;;2.00;;
12024;SDS011;6073;53.230;10.444;2023-08-08T05:36:58;4.05;;;1.70;;
12024;SDS011;6073;53.230;10.444;2023-08-08T05:39:24;2.30;;;1.55;;
12024;SDS011;6073;53.230;10.444;2023-08-08T05:41:49;3.03;;;1.80;;
12024;SDS011;6073;53.230;10.444;2023-08-08T05:44:15;4.70;;;1.60;;
12024;SDS011;6073;53.230;10.444;2023-08-08T05:46:40;2.95;;;1.77;;
12024;SDS011;6073;53.230;10.444;2023-08-08T05:49:06;4.07;;;1.52;;
12024;SDS011;6073;53.230;10.444;2023-08-08T05:51:32;2.97;;;1.90;;
12024;SDS011;6073;53.230;10.444;2023-08-08T05:53:57;1.83;;;1.60;;
12024;SDS011;6073;53.230;10.444;2023-08-08T05:56:23;3.88;;;1.55;;
12024;SDS011;6073;53.230;10.444;2023-08-08T05:58:48;2.47;;;1.65;;
12024;SDS011;6073;53.230;10.444;2023-08-08T06:01:14;4.53;;;1.90;;
12024;SDS011;6073;53.230;10.444;2023-08-08T06:03:39;2.08;;;1.50;;
12024;SDS011;6073;53.230;10.444;2023-08-08T06:06:05;2.60;;;1.60;;
12024;SDS011;6073;53.230;10.444;2023-08-08T06:08:31;3.70;;;1.90;;
12024;SDS011;6073;53.230;10.444;2023-08-08T06:10:57;3.92;;;1.63;;
12024;SDS011;6073;53.230;10.444;2023-08-08T06:13:23;2.60;;;1.80;;
12024;SDS011;6073;53.230;10.444;2023-08-08T06:15:48;2.95;;;1.70;;
12024;SDS011;6073;53.230;10.444;2023-08-08T06:18:14;3.35;;;2.30;;
12024;SDS011;6073;53.230;10.444;2023-08-08T06:20:40;4.05;;;2.28;;
12024;SDS011;6073;53.230;10.444;2023-08-08T06:23:06;3.83;;;2.20;;
12024;SDS011;6073;53.230;10.444;2023-08-08T06:25:32;4.32;;;2.42;;
12024;SDS011;6073;53.230;10.444;2023-08-08T06:27:57;3.72;;;2.33;;
12024;SDS011;6073;53.230;10.444;2023-08-08T06:30:23;2.53;;;2.05;;
12024;SDS011;6073;53.230;10.444;2023-08-08T06:32:48;6.65;;;2.53;;
12024;SDS011;6073;53.230;10.444;2023-08-08T06:35:15;4.30;;;2.42;;
12024;SDS011;6073;53.230;10.444;2023-08-08T06:37:41;3.97;;;2.47;;
12024;SDS011;6073;53.230;10.444;2023-08-08T06:40:08;4.90;;;2.55;;
12024;SDS011;6073;53.230;10.444;2023-08-08T06:42:34;4.20;;;2.30;;
12024;SDS011;6073;53.230;10.444;2023-08-08T06:44:59;3.83;;;2.00;;
12024;SDS011;6073;53.230;10.444;2023-08-08T06:47:25;2.55;;;1.73;;
12024;SDS011;6073;53.230;10.444;2023-08-08T06:49:50;3.72;;;1.77;;
12024;SDS011;6073;53.230;10.444;2023-08-08T06:52:16;3.58;;;1.75;;
12024;SDS011;6073;53.230;10.444;2023-08-08T06:54:41;2.92;;;1.90;;
12024;SDS011;6073;53.230;10.444;2023-08-08T06:57:07;3.53;;;1.83;;
12024;SDS011;6073;53.230;10.444;2023-08-08T06:59:32;4.25;;;2.38;;
12024;SDS011;6073;53.230;10.444;2023-08-08T07:01:58;3.20;;;1.90;;
12024;SDS011;6073;53.230;10.444;2023-08-08T07:04:23;3.13;;;1.70;;
12024;SDS011;6073;53.230;10.444;2023-08-08T07:06:49;2.88;;;1.73;;
12024;SDS011;6073;53.230;10.444;2023-08-08T07:09:15;2.47;;;1.70;;
12024;SDS011;6073;53.230;10.444;2023-08-08T07:11:40;5.68;;;1.83;;
12024;SDS011;6073;53.230;10.444;2023-08-08T07:14:06;3.40;;;1.67;;
12024;SDS011;6073;53.230;10.444;2023-08-08T07:16:31;2.63;;;1.80;;
12024;SDS011;6073;53.230;10.444;2023-08-08T07:18:57;2.92;;;1.80;;
12024;SDS011;6073;53.230;10.444;2023-08-08T07:21:22;3.05;;;1.70;;
12024;SDS011;6073;53.230;10.444;2023-08-08T07:23:48;5.35;;;2.00;;
12024;SDS011;6073;53.230;10.444;2023-08-08T07:26:13;2.80;;;1.65;;
12024;SDS011;6073;53.230;10.444;2023-08-08T07:28:39;4.68;;;1.83;;
12024;SDS011;6073;53.230;10.444;2023-08-08T07:31:04;4.18;;;2.00;;
12024;SDS011;6073;53.230;10.444;2023-08-08T07:33:30;3.97;;;2.00;;
12024;SDS011;6073;53.230;10.444;2023-08-08T07:35:56;1.90;;;1.60;;
12024;SDS011;6073;53.230;10.444;2023-08-08T07:38:21;1.95;;;1.48;;
12024;SDS011;6073;53.230;10.444;2023-08-08T07:40:47;2.92;;;1.73;;
12024;SDS011;6073;53.230;10.444;2023-08-08T07:43:13;1.88;;;1.55;;
12024;SDS011;6073;53.230;10.444;2023-08-08T07:45:39;4.60;;;2.08;;
12024;SDS011;6073;53.230;10.444;2023-08-08T07:48:04;3.10;;;1.60;;
12024;SDS011;6073;53.230;10.444;2023-08-08T07:50:30;4.72;;;1.90;;
12024;SDS011;6073;53.230;10.444;2023-08-08T07:52:56;3.35;;;2.10;;
12024;SDS011;6073;53.230;10.444;2023-08-08T07:55:21;5.15;;;1.80;;
12024;SDS011;6073;53.230;10.444;2023-08-08T07:57:47;4.82;;;1.63;;
12024;SDS011;6073;53.230;10.444;2023-08-08T08:00:13;6.75;;;1.75;;
12024;SDS011;6073;53.230;10.444;2023-08-08T08:02:42;4.63;;;1.70;;
12024;SDS011;6073;53.230;10.444;2023-08-08T08:05:08;1.85;;;1.40;;
12024;SDS011;6073;53.230;10.444;2023-08-08T08:07:34;3.10;;;1.52;;
12024;SDS011;6073;53.230;10.444;2023-08-08T08:10:01;2.75;;;1.42;;
12024;SDS011;6073;53.230;10.444;2023-08-08T08:12:27;2.13;;;1.48;;
12024;SDS011;6073;53.230;10.444;2023-08-08T08:14:54;1.83;;;1.30;;
12024;SDS011;6073;53.230;10.444;2023-08-08T08:17:19;3.22;;;1.45;;
12024;SDS011;6073;53.230;10.444;2023-08-08T08:19:45;2.42;;;1.50;;
12024;SDS011;6073;53.230;10.444;2023-08-08T08:22:10;2.17;;;1.40;;
12024;SDS011;6073;53.230;10.444;2023-08-08T08:24:36;2.15;;;1.60;;
12024;SDS011;6073;53.230;10.444;2023-08-08T08:27:01;3.35;;;1.70;;
12024;SDS011;6073;53.230;10.444;2023-08-08T08:29:27;4.35;;;1.90;;
12024;SDS011;6073;53.230;10.444;2023-08-08T08:31:52;4.07;;;1.70;;
12024;SDS011;6073;53.230;10.444;2023-08-08T08:34:18;1.95;;;1.10;;
12024;SDS011;6073;53.230;10.444;2023-08-08T08:36:43;4.25;;;1.33;;
12024;SDS011;6073;53.230;10.444;2023-08-08T08:39:09;4.38;;;1.73;;
12024;SDS011;6073;53.230;10.444;2023-08-08T08:41:35;1.70;;;1.23;;
12024;SDS011;6073;53.230;10.444;2023-08-08T08:44:04;1.60;;;1.15;;
12024;SDS011;6073;53.230;10.444;2023-08-08T08:46:33;3.55;;;1.48;;
12024;SDS011;6073;53.230;10.444;2023-08-08T08:49:01;1.85;;;1.38;;
12024;SDS011;6073;53.230;10.444;2023-08-08T08:51:30;2.10;;;1.33;;
12024;SDS011;6073;53.230;10.444;2023-08-08T08:53:56;2.15;;;1.67;;
12024;SDS011;6073;53.230;10.444;2023-08-08T08:56:23;3.22;;;1.88;;
12024;SDS011;6073;53.230;10.444;2023-08-08T08:58:48;2.53;;;1.58;;
12024;SDS011;6073;53.230;10.444;2023-08-08T09:01:14;2.40;;;1.63;;
12024;SDS011;6073;53.230;10.444;2023-08-08T09:03:43;2.95;;;1.80;;
12024;SDS011;6073;53.230;10.444;2023-08-08T09:06:09;2.40;;;1.67;;
12024;SDS011;6073;53.230;10.444;2023-08-08T09:08:37;3.90;;;1.80;;
12024;SDS011;6073;53.230;10.444;2023-08-08T09:11:02;4.38;;;1.52;;
12024;SDS011;6073;53.230;10.444;2023-08-08T09:13:33;2.40;;;1.50;;
12024;SDS011;6073;53.230;10.444;2023-08-08T09:16:02;2.08;;;1.13;;
12024;SDS011;6073;53.230;10.444;2023-08-08T09:18:31;2.17;;;1.30;;
12024;SDS011;6073;53.230;10.444;2023-08-08T09:20:57;2.30;;;1.30;;
12024;SDS011;6073;53.230;10.444;2023-08-08T09:23:23;1.88;;;1.20;;
12024;SDS011;6073;53.230;10.444;2023-08-08T09:25:49;2.00;;;1.10;;
12024;SDS011;6073;53.230;10.444;2023-08-08T09:28:15;2.05;;;1.58;;
12024;SDS011;6073;53.230;10.444;2023-08-08T09:30:41;1.20;;;0.82;;
12024;SDS011;6073;53.230;10.444;2023-08-08T09:33:07;1.60;;;1.02;;
12024;SDS011;6073;53.230;10.444;2023-08-08T09:35:33;2.65;;;0.90;;
12024;SDS011;6073;53.230;10.444;2023-08-08T09:37:59;1.65;;;0.80;;
12024;SDS011;6073;53.230;10.444;2023-08-08T09:40:25;1.17;;;0.95;;
12024;SDS011;6073;53.230;10.444;2023-08-08T09:42:51;1.45;;;0.80;;
12024;SDS011;6073;53.230;10.444;2023-08-08T09:45:17;2.30;;;1.15;;
12024;SDS011;6073;53.230;10.444;2023-08-08T09:47:43;1.25;;;0.80;;
12024;SDS011;6073;53.230;10.444;2023-08-08T09:50:08;3.20;;;1.42;;
12024;SDS011;6073;53.230;10.444;2023-08-08T09:52:34;2.00;;;1.00;;
12024;SDS011;6073;53.230;10.444;2023-08-08T09:55:01;3.92;;;1.30;;
12024;SDS011;6073;53.230;10.444;2023-08-08T09:57:27;2.38;;;1.15;;
12024;SDS011;6073;53.230;10.444;2023-08-08T09:59:53;3.50;;;1.20;;
12024;SDS011;6073;53.230;10.444;2023-08-08T10:02:20;1.45;;;1.10;;
12024;SDS011;6073;53.230;10.444;2023-08-08T10:04:46;2.33;;;1.33;;
12024;SDS011;6073;53.230;10.444;2023-08-08T10:07:11;2.25;;;1.00;;
12024;SDS011;6073;53.230;10.444;2023-08-08T10:09:37;2.20;;;1.23;;
12024;SDS011;6073;53.230;10.444;2023-08-08T10:12:04;1.33;;;0.93;;
12024;SDS011;6073;53.230;10.444;2023-08-08T10:14:31;2.17;;;1.08;;
12024;SDS011;6073;53.230;10.444;2023-08-08T10:17:01;2.42;;;1.00;;
12024;SDS011;6073;53.230;10.444;2023-08-08T10:19:28;4.43;;;1.35;;
12024;SDS011;6073;53.230;10.444;2023-08-08T10:21:59;1.38;;;1.15;;
12024;SDS011;6073;53.230;10.444;2023-08-08T10:24:32;0.88;;;0.80;;
12024;SDS011;6073;53.230;10.444;2023-08-08T10:27:00;2.05;;;1.20;;
12024;SDS011;6073;53.230;10.444;2023-08-08T10:29:27;2.70;;;1.23;;
12024;SDS011;6073;53.230;10.444;2023-08-08T10:32:04;3.17;;;1.23;;
12024;SDS011;6073;53.230;10.444;2023-08-08T10:34:38;2.08;;;1.25;;
12024;SDS011;6073;53.230;10.444;2023-08-08T10:37:05;2.90;;;1.50;;
12024;SDS011;6073;53.230;10.444;2023-08-08T10:39:35;4.03;;;1.27;;
12024;SDS011;6073;53.230;10.444;2023-08-08T10:42:03;1.35;;;1.10;;
12024;SDS011;6073;53.230;10.444;2023-08-08T10:44:29;1.38;;;1.20;;
12024;SDS011;6073;53.230;10.444;2023-08-08T10:46:55;1.58;;;1.10;;
12024;SDS011;6073;53.230;10.444;2023-08-08T10:49:21;1.77;;;0.90;;
12024;SDS011;6073;53.230;10.444;2023-08-08T10:51:48;2.17;;;0.98;;
12024;SDS011;6073;53.230;10.444;2023-08-08T10:54:16;1.73;;;1.30;;
12024;SDS011;6073;53.230;10.444;2023-08-08T10:56:49;1.33;;;1.00;;
12024;SDS011;6073;53.230;10.444;2023-08-08T10:59:15;1.02;;;0.85;;
12024;SDS011;6073;53.230;10.444;2023-08-08T11:01:44;1.15;;;0.80;;
12024;SDS011;6073;53.230;10.444;2023-08-08T11:04:11;1.40;;;0.85;;
12024;SDS011;6073;53.230;10.444;2023-08-08T11:06:38;1.27;;;1.17;;
12024;SDS011;6073;53.230;10.444;2023-08-08T11:09:05;2.95;;;1.08;;
12024;SDS011;6073;53.230;10.444;2023-08-08T11:11:38;1.25;;;1.00;;
12024;SDS011;6073;53.230;10.444;2023-08-08T11:14:11;1.98;;;1.00;;
12024;SDS011;6073;53.230;10.444;2023-08-08T11:16:38;2.00;;;0.85;;
12024;SDS011;6073;53.230;10.444;2023-08-08T11:19:04;2.40;;;0.90;;
12024;SDS011;6073;53.230;10.444;2023-08-08T11:21:32;0.80;;;0.70;;
12024;SDS011;6073;53.230;10.444;2023-08-08T11:24:00;1.33;;;0.88;;
12024;SDS011;6073;53.230;10.444;2023-08-08T11:26:25;1.48;;;1.00;;
12024;SDS011;6073;53.230;10.444;2023-08-08T11:28:52;1.10;;;0.85;;
12024;SDS011;6073;53.230;10.444;2023-08-08T11:31:21;1.98;;;0.98;;
12024;SDS011;6073;53.230;10.444;2023-08-08T11:33:48;2.72;;;1.20;;
12024;SDS011;6073;53.230;10.444;2023-08-08T11:36:14;2.00;;;0.85;;
12024;SDS011;6073;53.230;10.444;2023-08-08T11:38:40;1.20;;;0.70;;
12024;SDS011;6073;53.230;10.444;2023-08-08T11:41:08;3.53;;;0.90;;
12024;SDS011;6073;53.230;10.444;2023-08-08T11:43:36;2.22;;;0.80;;
12024;SDS011;6073;53.230;10.444;2023-08-08T11:46:03;1.65;;;0.80;;
12024;SDS011;6073;53.230;10.444;2023-08-08T11:48:28;1.48;;;0.85;;
12024;SDS011;6073;53.230;10.444;2023-08-08T11:50:57;1.42;;;0.90;;
12024;SDS011;6073;53.230;10.444;2023-08-08T11:53:23;1.00;;;0.80;;
12024;SDS011;6073;53.230;10.444;2023-08-08T11:55:48;1.58;;;0.70;;
12024;SDS011;6073;53.230;10.444;2023-08-08T11:58:14;1.40;;;0.70;;
12024;SDS011;6073;53.230;10.444;2023-08-08T12:00:42;1.15;;;0.93;;
12024;SDS011;6073;53.230;10.444;2023-08-08T12:03:10;1.63;;;1.13;;
12024;SDS011;6073;53.230;10.444;2023-08-08T12:05:39;2.58;;;1.00;;
12024;SDS011;6073;53.230;10.444;2023-08-08T12:08:05;0.85;;;0.70;;
12024;SDS011;6073;53.230;10.444;2023-08-08T12:10:31;2.20;;;0.80;;
12024;SDS011;6073;53.230;10.444;2023-08-08T12:12:57;2.13;;;1.20;;
12024;SDS011;6073;53.230;10.444;2023-08-08T12:15:34;0.93;;;0.90;;
12024;SDS011;6073;53.230;10.444;2023-08-08T12:18:03;1.02;;;0.88;;
12024;SDS011;6073;53.230;10.444;2023-08-08T12:20:30;1.17;;;0.95;;
12024;SDS011;6073;53.230;10.444;2023-08-08T12:22:57;1.15;;;0.90;;
12024;SDS011;6073;53.230;10.444;2023-08-08T12:25:23;2.15;;;1.33;;
12024;SDS011;6073;53.230;10.444;2023-08-08T12:27:48;1.50;;;0.82;;
12024;SDS011;6073;53.230;10.444;2023-08-08T12:30:14;1.40;;;0.90;;
12024;SDS011;6073;53.230;10.444;2023-08-08T12:32:40;2.40;;;1.30;;
12024;SDS011;6073;53.230;10.444;2023-08-08T12:35:06;2.35;;;1.10;;
12024;SDS011;6073;53.230;10.444;2023-08-08T12:37:32;1.55;;;1.20;;
12024;SDS011;6073;53.230;10.444;2023-08-08T12:39:57;1.27;;;1.10;;
12024;SDS011;6073;53.230;10.444;2023-08-08T12:42:23;1.40;;;0.88;;
12024;SDS011;6073;53.230;10.444;2023-08-08T12:44:49;2.88;;;1.20;;
12024;SDS011;6073;53.230;10.444;2023-08-08T12:47:16;1.63;;;1.20;;
12024;SDS011;6073;53.230;10.444;2023-08-08T12:49:44;2.25;;;1.00;;
12024;SDS011;6073;53.230;10.444;2023-08-08T12:52:09;0.90;;;0.90;;
12024;SDS011;6073;53.230;10.444;2023-08-08T12:54:35;5.60;;;1.23;;
12024;SDS011;6073;53.230;10.444;2023-08-08T12:57:01;1.40;;;1.00;;
12024;SDS011;6073;53.230;10.444;2023-08-08T12:59:27;2.35;;;1.30;;
12024;SDS011;6073;53.230;10.444;2023-08-08T13:01:52;1.20;;;1.00;;
12024;SDS011;6073;53.230;10.444;2023-08-08T13:04:18;2.95;;;1.20;;
12024;SDS011;6073;53.230;10.444;2023-08-08T13:06:44;2.85;;;1.17;;
12024;SDS011;6073;53.230;10.444;2023-08-08T13:09:10;0.90;;;0.90;;
12024;SDS011;6073;53.230;10.444;2023-08-08T13:11:36;1.55;;;0.98;;
12024;SDS011;6073;53.230;10.444;2023-08-08T13:14:01;1.65;;;0.93;;
12024;SDS011;6073;53.230;10.444;2023-08-08T13:16:27;1.92;;;1.10;;
12024;SDS011;6073;53.230;10.444;2023-08-08T13:18:52;1.88;;;1.13;;
12024;SDS011;6073;53.230;10.444;2023-08-08T13:21:18;1.70;;;0.73;;
12024;SDS011;6073;53.230;10.444;2023-08-08T13:23:43;3.28;;;1.10;;
12024;SDS011;6073;53.230;10.444;2023-08-08T13:26:09;1.30;;;1.10;;
12024;SDS011;6073;53.230;10.444;2023-08-08T13:28:34;2.13;;;0.98;;
12024;SDS011;6073;53.230;10.444;2023-08-08T13:31:00;3.38;;;1.13;;
12024;SDS011;6073;53.230;10.444;2023-08-08T13:33:26;1.85;;;1.15;;
12024;SDS011;6073;53.230;10.444;2023-08-08T13:35:51;2.45;;;0.90;;
12024;SDS011;6073;53.230;10.444;2023-08-08T13:38:17;2.13;;;1.15;;
12024;SDS011;6073;53.230;10.444;2023-08-08T13:40:42;0.70;;;0.70;;
12024;SDS011;6073;53.230;10.444;2023-08-08T13:43:08;1.65;;;1.13;;
12024;SDS011;6073;53.230;10.444;2023-08-08T13:45:34;1.33;;;0.80;;
12024;SDS011;6073;53.230;10.444;2023-08-08T13:48:00;2.65;;;0.90;;
12024;SDS011;6073;53.230;10.444;2023-08-08T13:50:27;2.42;;;1.00;;
12024;SDS011;6073;53.230;10.444;2023-08-08T13:52:53;2.05;;;0.88;;
12024;SDS011;6073;53.230;10.444;2023-08-08T13:55:19;2.15;;;0.82;;
12024;SDS011;6073;53.230;10.444;2023-08-08T13:57:45;1.70;;;0.88;;
12024;SDS011;6073;53.230;10.444;2023-08-08T14:00:10;0.77;;;0.60;;
12024;SDS011;6073;53.230;10.444;2023-08-08T14:02:37;1.40;;;0.90;;
12024;SDS011;6073;53.230;10.444;2023-08-08T14:05:04;3.50;;;1.30;;
12024;SDS011;6073;53.230;10.444;2023-08-08T14:07:31;4.18;;;1.00;;
12024;SDS011;6073;53.230;10.444;2023-08-08T14:09:58;1.38;;;0.98;;
12024;SDS011;6073;53.230;10.444;2023-08-08T14:12:24;3.25;;;0.98;;
12024;SDS011;6073;53.230;10.444;2023-08-08T14:14:49;1.60;;;1.05;;
12024;SDS011;6073;53.230;10.444;2023-08-08T14:17:15;1.30;;;1.10;;
12024;SDS011;6073;53.230;10.444;2023-08-08T14:19:40;1.35;;;1.10;;
12024;SDS011;6073;53.230;10.444;2023-08-08T14:22:06;2.95;;;1.23;;
12024;SDS011;6073;53.230;10.444;2023-08-08T14:24:31;1.17;;;0.85;;
12024;SDS011;6073;53.230;10.444;2023-08-08T14:26:57;2.28;;;0.73;;
12024;SDS011;6073;53.230;10.444;2023-08-08T14:29:22;2.75;;;1.40;;
12024;SDS011;6073;53.230;10.444;2023-08-08T14:31:48;1.98;;;1.35;;
12024;SDS011;6073;53.230;10.444;2023-08-08T14:34:14;1.63;;;1.27;;
12024;SDS011;6073;53.230;10.444;2023-08-08T14:36:40;3.22;;;1.20;;
12024;SDS011;6073;53.230;10.444;2023-08-08T14:39:06;1.15;;;1.00;;
12024;SDS011;6073;53.230;10.444;2023-08-08T14:41:32;2.47;;;1.25;;
12024;SDS011;6073;53.230;10.444;2023-08-08T14:43:57;2.92;;;1.38;;
12024;SDS011;6073;53.230;10.444;2023-08-08T14:46:23;1.60;;;1.10;;